Bo Airport

Jump to: basic info | weather | comments

Related pages: nearby airports | nearby navaids | notams | map

Basic information (top)

Codes: KBS GFBO
Location: lon 7.944400, lat -11.761000, elev 328 ft / 100 m msl
Status: medium_airport
Scheduled airline service: yes
Links: Wikipedia Mobile

Weather (top)

Current conditions for Lungi International Airport 94nm (175km) WNW (rec'd 2015/03/28 09:00Z):

GFLL 280900Z 33010KT 9999 NSW SCT014 27/21 Q1014

Airport forecast for Lungi International Airport 94nm (175km) WNW (rec'd 2015/03/28 06:09Z):

TAF TAF GFLL 280400Z 2806/2912 12005KT 3000BR SCT010 
      TEMPO 2810/2816 28010KT 7000 HZ SCT014 
      TEMPO 2817/2823 28010KT 8000 HZ NSC

Latest comments (top)

No comments yet for Bo Airport

More... (top)

See also NOTAMs and nearby airports and navaids, or visit the Bo Airport page at the main OurAirports website..